createdAt,value
2023-03-23T16:01:31.591Z,8.97
2023-03-23T16:06:35.688Z,9.07
2023-03-23T16:11:37.560Z,10.80
2023-03-23T16:16:44.197Z,9.63
2023-03-23T16:21:46.037Z,7.80
2023-03-23T16:26:47.833Z,7.57
2023-03-23T16:31:49.577Z,9.87
2023-03-23T16:36:51.243Z,9.33
2023-03-23T16:41:52.884Z,8.33
2023-03-23T16:46:54.567Z,7.80
2023-03-23T16:51:56.253Z,8.90
2023-03-23T16:56:58.045Z,7.80
2023-03-23T17:02:03.534Z,12.20
2023-03-23T17:07:05.661Z,8.70
2023-03-23T17:12:07.471Z,8.03
2023-03-23T17:17:12.218Z,9.80
2023-03-23T17:22:13.904Z,9.13
2023-03-23T17:27:17.770Z,9.43
2023-03-23T17:32:21.701Z,9.57
2023-03-23T17:37:23.501Z,7.83
2023-03-23T17:42:25.183Z,8.03
2023-03-23T17:47:26.899Z,7.67
2023-03-23T17:52:28.638Z,10.40
2023-03-23T17:57:30.622Z,9.63
2023-03-23T18:02:32.513Z,9.17
2023-03-23T18:07:34.258Z,7.50
2023-03-23T18:12:35.950Z,9.17
2023-03-23T18:17:38.054Z,10.33
2023-03-23T18:22:40.206Z,10.37
2023-03-23T18:27:42.299Z,9.67
2023-03-23T18:32:44.116Z,13.17
2023-03-23T18:37:47.840Z,13.47
2023-03-23T18:42:49.604Z,9.43
2023-03-23T18:47:53.098Z,13.87
2023-03-23T18:52:56.074Z,14.97
2023-03-23T18:58:00.165Z,12.83
2023-03-23T19:03:01.934Z,17.73
2023-03-23T19:08:04.952Z,18.63
2023-03-23T19:13:07.565Z,15.63
2023-03-23T19:18:09.355Z,13.10
2023-03-23T19:23:11.387Z,13.57
2023-03-23T19:29:00.521Z,10.93
2023-03-23T19:33:35.576Z,10.57
2023-03-23T19:38:37.362Z,17.00
2023-03-23T19:43:39.494Z,19.63
2023-03-23T19:48:41.412Z,19.47
2023-03-23T19:53:43.348Z,20.17
2023-03-23T19:58:46.027Z,15.90
2023-03-23T20:03:48.320Z,12.00
2023-03-23T20:08:50.051Z,11.30
2023-03-23T20:13:51.733Z,10.83
2023-03-23T20:18:54.360Z,17.10
2023-03-23T20:23:58.514Z,12.00
2023-03-23T20:29:01.143Z,16.00
2023-03-23T20:34:06.203Z,22.03
2023-03-23T20:39:11.834Z,16.03
2023-03-23T20:44:15.605Z,14.40
2023-03-23T20:49:19.710Z,14.23
2023-03-23T20:54:22.061Z,23.40
2023-03-23T20:59:24.414Z,17.17
2023-03-23T21:04:27.493Z,21.93
2023-03-23T21:09:29.531Z,25.77
2023-03-23T21:14:31.382Z,25.23
2023-03-23T21:19:35.703Z,17.57
2023-03-23T21:24:37.657Z,12.23
2023-03-23T21:29:39.304Z,16.40
2023-03-23T21:34:41.031Z,11.53
2023-03-23T21:39:42.755Z,9.87
2023-03-23T21:44:44.505Z,10.23
2023-03-23T21:49:46.276Z,12.97
2023-03-23T21:54:48.750Z,10.43
2023-03-23T21:59:50.598Z,9.60
2023-03-23T22:04:56.247Z,11.17
2023-03-23T22:09:59.045Z,9.33
2023-03-23T22:15:01.035Z,10.17
2023-03-23T22:20:02.994Z,7.77
2023-03-23T22:25:05.793Z,10.73
2023-03-23T22:30:07.953Z,8.80
2023-03-23T22:35:12.528Z,9.67
2023-03-23T22:40:14.259Z,9.77
2023-03-23T22:45:16.256Z,8.90
2023-03-23T22:50:18.857Z,9.33
2023-03-23T22:55:20.515Z,11.37
2023-03-23T23:00:22.319Z,12.07
2023-03-23T23:05:24.085Z,10.17
2023-03-23T23:10:25.837Z,8.57
2023-03-23T23:15:27.659Z,9.30
2023-03-23T23:20:29.378Z,7.72
2023-03-23T23:25:31.960Z,7.40
2023-03-23T23:30:34.351Z,6.97
2023-03-23T23:35:37.641Z,7.47
2023-03-23T23:40:41.226Z,7.63
2023-03-23T23:45:43.748Z,10.47
2023-03-23T23:50:46.223Z,7.70
2023-03-23T23:55:49.163Z,6.70
